createdAt,value
2022-11-27T00:00:56.369Z,73.16
2022-11-27T00:01:57.891Z,72.11
2022-11-27T00:02:59.545Z,72.97
2022-11-27T00:04:01.332Z,72.20
2022-11-27T00:05:02.926Z,73.00
2022-11-27T00:06:04.617Z,72.38
2022-11-27T00:07:06.116Z,72.77
2022-11-27T00:08:07.695Z,72.85
2022-11-27T00:09:13.579Z,72.82
2022-11-27T00:10:15.131Z,74.02
2022-11-27T00:11:20.100Z,75.51
2022-11-27T00:12:21.693Z,76.23
2022-11-27T00:13:23.578Z,78.16
2022-11-27T00:14:25.135Z,79.78
2022-11-27T00:15:26.763Z,81.28
2022-11-27T00:16:28.965Z,83.06
2022-11-27T00:17:30.948Z,83.71
2022-11-27T00:18:33.362Z,84.39
2022-11-27T00:19:34.935Z,85.42
2022-11-27T00:20:36.801Z,86.63
2022-11-27T00:21:38.862Z,87.17
2022-11-27T00:22:40.394Z,87.81
2022-11-27T00:23:42.346Z,88.39
2022-11-27T00:24:44.437Z,88.74
2022-11-27T00:25:52.445Z,88.98
2022-11-27T00:26:54.048Z,89.58
2022-11-27T00:27:55.591Z,87.67
2022-11-27T00:28:57.770Z,87.55
2022-11-27T00:29:59.277Z,87.18
2022-11-27T00:31:12.624Z,87.11
2022-11-27T00:32:14.213Z,86.96
2022-11-27T00:33:15.709Z,86.55
2022-11-27T00:34:17.271Z,86.71
2022-11-27T00:35:18.931Z,86.59
2022-11-27T00:36:20.582Z,86.50
2022-11-27T00:37:22.159Z,86.59
2022-11-27T00:38:23.912Z,86.50
2022-11-27T00:39:25.496Z,87.05
2022-11-27T00:40:27.038Z,87.37
2022-11-27T00:41:30.385Z,87.32
2022-11-27T00:42:32.058Z,86.80
2022-11-27T00:43:43.697Z,87.09
2022-11-27T00:44:46.336Z,87.72
2022-11-27T00:45:50.952Z,87.77
2022-11-27T00:46:52.563Z,87.56
2022-11-27T00:47:54.139Z,87.16
2022-11-27T00:48:56.944Z,86.48
2022-11-27T00:49:58.858Z,85.96
2022-11-27T00:51:01.828Z,85.68
2022-11-27T00:52:03.701Z,84.61
2022-11-27T00:53:05.262Z,84.13
2022-11-27T00:54:07.555Z,83.61
2022-11-27T00:55:09.335Z,82.33
2022-11-27T00:56:16.629Z,81.67
2022-11-27T00:57:18.166Z,80.99
2022-11-27T00:58:19.784Z,81.02
2022-11-27T00:59:21.311Z,80.67
2022-11-27T01:00:23.374Z,80.47
2022-11-27T01:01:34.989Z,79.94
2022-11-27T01:02:36.610Z,79.27
2022-11-27T01:03:38.139Z,79.22
2022-11-27T01:04:40.015Z,78.15
2022-11-27T01:05:41.736Z,78.00
2022-11-27T01:06:44.439Z,78.27
2022-11-27T01:07:46.098Z,77.24
2022-11-27T01:08:48.274Z,77.01
2022-11-27T01:09:49.789Z,77.32
2022-11-27T01:10:56.386Z,76.70
2022-11-27T01:11:58.034Z,76.40
2022-11-27T01:12:59.567Z,76.49
2022-11-27T01:14:04.907Z,75.71
2022-11-27T01:15:06.983Z,75.83
2022-11-27T01:16:17.328Z,75.16
2022-11-27T01:17:18.956Z,75.31
2022-11-27T01:18:20.489Z,75.17
2022-11-27T01:19:22.055Z,75.71
2022-11-27T01:20:23.621Z,75.96
2022-11-27T01:21:28.185Z,76.02
2022-11-27T01:22:29.727Z,76.96
2022-11-27T01:23:31.480Z,77.14
2022-11-27T01:24:33.014Z,78.28
2022-11-27T01:25:36.276Z,77.66
2022-11-27T01:26:37.810Z,78.59
2022-11-27T01:27:39.376Z,78.05
2022-11-27T01:28:41.438Z,78.63
2022-11-27T01:29:42.982Z,78.75
2022-11-27T01:30:44.569Z,79.79
2022-11-27T01:31:46.295Z,79.96
2022-11-27T01:32:47.989Z,79.28
2022-11-27T01:33:54.004Z,80.30
2022-11-27T01:34:55.578Z,80.11
2022-11-27T01:35:58.883Z,79.78
2022-11-27T01:37:00.458Z,79.25
2022-11-27T01:38:02.076Z,79.35
2022-11-27T01:39:04.200Z,79.78
2022-11-27T01:40:06.727Z,80.23
2022-11-27T01:41:15.510Z,79.71
2022-11-27T01:42:17.022Z,80.29
2022-11-27T01:43:56.254Z,80.19
2022-11-27T01:44:57.808Z,80.02
2022-11-27T01:45:59.523Z,79.89
2022-11-27T01:47:04.233Z,83.61
2022-11-27T01:48:05.913Z,82.40
2022-11-27T01:49:10.365Z,82.12
2022-11-27T01:50:19.029Z,81.79
2022-11-27T01:51:23.014Z,80.57
2022-11-27T01:52:32.941Z,79.61
2022-11-27T01:53:34.779Z,78.68
2022-11-27T01:54:51.658Z,78.12
2022-11-27T01:55:58.773Z,78.72
2022-11-27T01:57:04.640Z,77.91
2022-11-27T01:58:11.329Z,76.89
2022-11-27T01:59:13.410Z,76.27
2022-11-27T02:00:17.710Z,76.13
2022-11-27T02:01:19.318Z,75.95
2022-11-27T02:02:21.061Z,75.38
2022-11-27T02:03:23.301Z,75.07
2022-11-27T02:04:24.929Z,75.28
2022-11-27T02:05:28.695Z,74.92
2022-11-27T02:06:30.315Z,75.11
2022-11-27T02:07:32.012Z,75.28
2022-11-27T02:08:33.586Z,75.67
2022-11-27T02:09:35.494Z,75.58
2022-11-27T02:10:43.011Z,75.88
2022-11-27T02:12:25.301Z,75.93
2022-11-27T02:13:41.042Z,76.11
2022-11-27T02:14:50.427Z,75.91
2022-11-27T02:16:08.942Z,76.59
2022-11-27T02:17:39.445Z,77.58
2022-11-27T02:18:52.911Z,77.89
2022-11-27T02:20:19.132Z,78.85
2022-11-27T02:21:47.104Z,79.01
2022-11-27T02:23:09.966Z,79.60
2022-11-27T02:24:31.905Z,80.27
2022-11-27T02:25:48.596Z,80.50
2022-11-27T02:27:27.134Z,81.27
2022-11-27T02:28:35.290Z,81.50
2022-11-27T02:29:36.965Z,81.14
2022-11-27T02:30:46.295Z,82.12
2022-11-27T02:32:20.122Z,82.58
2022-11-27T02:33:22.167Z,82.63
2022-11-27T02:34:23.997Z,82.84
2022-11-27T02:35:37.682Z,83.38
2022-11-27T02:36:43.787Z,84.28
2022-11-27T02:37:50.478Z,84.89
2022-11-27T02:38:59.686Z,85.20
2022-11-27T02:40:07.885Z,85.14
2022-11-27T02:41:42.203Z,84.64
2022-11-27T02:42:50.032Z,83.96
2022-11-27T02:43:53.681Z,83.55
2022-11-27T02:45:07.825Z,83.50
2022-11-27T02:46:10.976Z,82.89
2022-11-27T02:47:14.478Z,82.86
2022-11-27T02:48:20.362Z,82.06
2022-11-27T02:49:22.451Z,81.55
2022-11-27T02:50:26.273Z,81.19
2022-11-27T02:51:37.344Z,80.91
2022-11-27T02:52:39.892Z,80.06
2022-11-27T02:53:57.573Z,79.85
2022-11-27T02:55:03.390Z,79.99
2022-11-27T02:56:12.735Z,78.77
2022-11-27T02:57:16.067Z,78.69
2022-11-27T02:58:22.242Z,77.49
2022-11-27T02:59:26.692Z,77.56
2022-11-27T03:00:30.135Z,78.80
2022-11-27T03:01:38.794Z,79.01
2022-11-27T03:02:46.486Z,79.23
2022-11-27T03:03:55.654Z,79.20
2022-11-27T03:05:00.670Z,80.46
2022-11-27T03:06:08.163Z,81.06
2022-11-27T03:07:16.936Z,80.80
2022-11-27T03:08:30.994Z,81.91
2022-11-27T03:09:38.687Z,81.89
2022-11-27T03:10:57.070Z,82.96
2022-11-27T03:11:59.209Z,84.15
2022-11-27T03:13:02.555Z,84.72
2022-11-27T03:14:08.320Z,84.65
2022-11-27T03:15:10.495Z,84.40
2022-11-27T03:16:15.128Z,83.83
2022-11-27T03:17:41.504Z,83.50
2022-11-27T03:19:03.486Z,82.57
2022-11-27T03:20:27.882Z,82.06
2022-11-27T03:21:42.274Z,82.60
2022-11-27T03:22:44.062Z,82.12
2022-11-27T03:23:45.723Z,82.41
2022-11-27T03:24:49.883Z,82.72
2022-11-27T03:25:51.775Z,82.32
2022-11-27T03:26:53.333Z,83.47
2022-11-27T03:28:01.170Z,83.07
2022-11-27T03:29:06.219Z,83.25
2022-11-27T03:30:09.729Z,83.53
2022-11-27T03:31:12.104Z,82.96
2022-11-27T03:32:14.687Z,82.58
2022-11-27T03:33:17.558Z,82.02
2022-11-27T03:34:19.225Z,81.70
2022-11-27T03:35:24.643Z,81.33
2022-11-27T03:36:26.265Z,81.34
2022-11-27T03:37:28.305Z,80.53
2022-11-27T03:38:29.858Z,79.89
2022-11-27T03:39:32.117Z,78.92
2022-11-27T03:41:00.094Z,78.65
2022-11-27T03:42:13.525Z,78.09
2022-11-27T03:43:23.128Z,78.20
2022-11-27T03:44:47.515Z,78.37
2022-11-27T03:45:56.511Z,77.68
2022-11-27T03:47:16.785Z,77.49
2022-11-27T03:48:27.276Z,77.29
2022-11-27T03:49:34.011Z,78.24
2022-11-27T03:50:56.818Z,77.02
2022-11-27T03:52:55.688Z,77.57
2022-11-27T03:54:15.608Z,76.31
2022-11-27T03:55:29.297Z,76.07
2022-11-27T03:56:59.772Z,75.66
2022-11-27T03:58:06.274Z,75.67
2022-11-27T03:59:17.971Z,75.62
2022-11-27T04:00:19.814Z,75.30
2022-11-27T04:01:24.753Z,74.87
2022-11-27T04:02:38.435Z,75.46
2022-11-27T04:03:40.174Z,75.68
2022-11-27T04:04:42.212Z,75.50
2022-11-27T04:05:43.925Z,75.67
2022-11-27T04:06:45.583Z,75.13
2022-11-27T04:07:47.390Z,75.34
2022-11-27T04:08:49.641Z,74.97
2022-11-27T04:09:51.209Z,74.50
2022-11-27T04:10:53.028Z,74.99
2022-11-27T04:11:54.616Z,75.42
2022-11-27T04:12:56.639Z,74.48
2022-11-27T04:13:58.390Z,74.37
2022-11-27T04:15:00.414Z,74.89
2022-11-27T04:16:02.257Z,73.87
2022-11-27T04:17:03.962Z,74.32
2022-11-27T04:18:05.828Z,72.91
2022-11-27T04:19:08.187Z,73.17
2022-11-27T04:20:12.347Z,74.15
2022-11-27T04:21:13.969Z,74.64
2022-11-27T04:22:15.517Z,75.40
2022-11-27T04:23:17.034Z,74.95
2022-11-27T04:24:18.575Z,76.26
2022-11-27T04:25:20.110Z,76.30
2022-11-27T04:26:21.719Z,77.05
2022-11-27T04:27:23.353Z,77.01
2022-11-27T04:28:24.906Z,78.21
2022-11-27T04:29:26.457Z,78.23
2022-11-27T04:30:28.065Z,78.81
2022-11-27T04:31:29.646Z,78.99
2022-11-27T04:32:31.270Z,78.63
2022-11-27T04:33:32.987Z,78.18
2022-11-27T04:34:34.725Z,77.87
2022-11-27T04:35:36.331Z,78.18
2022-11-27T04:36:39.613Z,77.68
2022-11-27T04:37:41.429Z,78.25
2022-11-27T04:38:43.038Z,77.77
2022-11-27T04:39:44.555Z,77.59
2022-11-27T04:40:46.304Z,78.35
2022-11-27T04:41:48.065Z,78.13
2022-11-27T04:42:50.075Z,79.63
2022-11-27T04:43:51.604Z,82.07
2022-11-27T04:44:53.202Z,81.50
2022-11-27T04:45:54.819Z,80.22
2022-11-27T04:46:56.499Z,79.02
2022-11-27T04:47:58.170Z,78.50
2022-11-27T04:48:59.691Z,77.63
2022-11-27T04:50:01.504Z,77.84
2022-11-27T04:51:03.130Z,76.66
2022-11-27T04:52:04.859Z,77.00
2022-11-27T04:53:06.459Z,77.75
2022-11-27T04:54:08.016Z,77.85
2022-11-27T04:55:10.190Z,77.46
2022-11-27T04:56:11.731Z,77.00
2022-11-27T04:57:15.259Z,77.71
2022-11-27T04:58:16.897Z,78.67
2022-11-27T04:59:18.548Z,77.92
2022-11-27T05:00:20.816Z,78.09
2022-11-27T05:01:22.522Z,79.21
2022-11-27T05:02:24.224Z,79.72
2022-11-27T05:03:25.768Z,79.02
2022-11-27T05:04:27.343Z,79.17
2022-11-27T05:05:28.882Z,79.72
2022-11-27T05:06:30.412Z,78.90
2022-11-27T05:07:32.034Z,79.66
2022-11-27T05:08:34.207Z,79.88
2022-11-27T05:09:35.859Z,79.65
2022-11-27T05:10:37.486Z,80.19
2022-11-27T05:11:39.308Z,80.76
2022-11-27T05:12:40.838Z,80.70
2022-11-27T05:13:42.671Z,80.92
2022-11-27T05:14:44.193Z,80.42
2022-11-27T05:15:45.785Z,80.58
2022-11-27T05:16:51.638Z,81.04
2022-11-27T05:17:53.380Z,80.89
2022-11-27T05:18:55.000Z,81.36
2022-11-27T05:19:56.519Z,81.82
2022-11-27T05:20:58.228Z,83.13
2022-11-27T05:21:59.769Z,84.03
2022-11-27T05:23:01.295Z,83.74
2022-11-27T05:24:02.915Z,83.95
2022-11-27T05:25:04.727Z,83.56
2022-11-27T05:26:06.296Z,83.31
2022-11-27T05:27:07.910Z,82.49
2022-11-27T05:28:09.445Z,82.58
2022-11-27T05:29:12.104Z,83.07
2022-11-27T05:30:13.671Z,82.68
2022-11-27T05:31:15.330Z,82.45
2022-11-27T05:32:17.028Z,82.38
2022-11-27T05:33:19.339Z,82.63
2022-11-27T05:34:21.428Z,82.89
2022-11-27T05:35:22.951Z,82.32
2022-11-27T05:36:24.893Z,82.25
2022-11-27T05:37:26.482Z,82.26
2022-11-27T05:38:28.084Z,82.62
2022-11-27T05:39:29.665Z,82.71
2022-11-27T05:40:31.250Z,82.74
2022-11-27T05:41:33.653Z,82.65
2022-11-27T05:42:35.238Z,82.17
2022-11-27T05:43:37.135Z,81.36
2022-11-27T05:44:39.142Z,81.21
2022-11-27T05:45:40.894Z,80.80
2022-11-27T05:46:43.846Z,80.59
2022-11-27T05:47:45.486Z,81.05
2022-11-27T05:48:47.302Z,80.39
2022-11-27T05:49:48.907Z,80.64
2022-11-27T05:50:50.467Z,79.65
2022-11-27T05:51:52.149Z,80.20
2022-11-27T05:52:53.712Z,79.27
2022-11-27T05:53:55.234Z,79.85
2022-11-27T05:54:56.758Z,80.86
2022-11-27T05:56:04.003Z,80.75
2022-11-27T05:57:05.522Z,81.15
2022-11-27T05:58:07.047Z,81.19
2022-11-27T05:59:10.175Z,80.25
2022-11-27T06:00:12.807Z,80.49
2022-11-27T06:01:16.445Z,79.57
2022-11-27T06:02:22.625Z,79.49
2022-11-27T06:03:25.900Z,78.66
2022-11-27T06:04:27.602Z,79.26
2022-11-27T06:05:29.146Z,78.62
2022-11-27T06:06:30.933Z,78.63
2022-11-27T06:07:32.951Z,78.86
2022-11-27T06:08:37.116Z,78.07
2022-11-27T06:09:38.681Z,78.06
2022-11-27T06:10:40.683Z,78.24
2022-11-27T06:11:43.190Z,78.12
2022-11-27T06:12:44.763Z,77.35
2022-11-27T06:13:47.270Z,78.11
2022-11-27T06:14:48.766Z,77.48
2022-11-27T06:15:50.295Z,77.25
2022-11-27T06:16:51.841Z,77.23
2022-11-27T06:17:53.425Z,77.38
2022-11-27T06:18:56.044Z,77.32
2022-11-27T06:19:57.660Z,76.37
2022-11-27T06:20:59.278Z,76.79
2022-11-27T06:22:00.798Z,76.73
2022-11-27T06:23:02.313Z,76.99
2022-11-27T06:24:04.157Z,76.84
2022-11-27T06:25:06.333Z,76.22
2022-11-27T06:26:17.262Z,77.13
2022-11-27T06:27:18.864Z,77.44
2022-11-27T06:28:20.449Z,77.25
2022-11-27T06:29:22.122Z,77.14
2022-11-27T06:30:23.659Z,76.57
2022-11-27T06:31:28.675Z,77.57
2022-11-27T06:32:30.512Z,76.73
2022-11-27T06:33:32.063Z,77.45
2022-11-27T06:34:33.656Z,76.96
2022-11-27T06:35:35.186Z,77.34
2022-11-27T06:36:38.238Z,77.48
2022-11-27T06:37:39.830Z,78.32
2022-11-27T06:38:41.512Z,78.48
2022-11-27T06:39:43.172Z,77.73
2022-11-27T06:40:44.662Z,77.97
2022-11-27T06:41:46.261Z,78.11
2022-11-27T06:42:47.826Z,78.40
2022-11-27T06:43:49.654Z,78.03
2022-11-27T06:44:51.184Z,78.08
2022-11-27T06:45:57.500Z,78.37
2022-11-27T06:46:59.098Z,77.68
2022-11-27T06:48:00.650Z,76.90
2022-11-27T06:49:02.290Z,77.96
2022-11-27T06:50:04.037Z,77.22
2022-11-27T06:51:08.072Z,77.34
2022-11-27T06:52:09.606Z,76.83
2022-11-27T06:53:11.189Z,77.43
2022-11-27T06:54:12.830Z,76.91
2022-11-27T06:55:14.406Z,76.47
2022-11-27T06:56:19.136Z,76.03
2022-11-27T06:57:20.737Z,76.56
2022-11-27T06:58:26.491Z,81.00
2022-11-27T06:59:31.246Z,86.30
2022-11-27T07:00:32.784Z,83.54
2022-11-27T07:01:34.657Z,82.76
2022-11-27T07:02:36.400Z,80.91
2022-11-27T07:03:38.091Z,80.27
2022-11-27T07:04:40.018Z,79.27
2022-11-27T07:05:41.832Z,79.50
2022-11-27T07:06:43.721Z,78.70
2022-11-27T07:07:45.358Z,77.99
2022-11-27T07:08:47.340Z,78.39
2022-11-27T07:09:48.906Z,77.69
2022-11-27T07:10:50.474Z,78.67
2022-11-27T07:11:52.020Z,77.71
2022-11-27T07:12:53.573Z,78.41
2022-11-27T07:13:57.483Z,79.28
2022-11-27T07:15:03.869Z,77.87
2022-11-27T07:16:08.372Z,77.82
2022-11-27T07:17:09.949Z,77.39
2022-11-27T07:18:12.047Z,77.16
2022-11-27T07:19:14.719Z,77.42
2022-11-27T07:20:16.392Z,76.97
2022-11-27T07:21:18.083Z,76.98
2022-11-27T07:22:19.646Z,77.67
2022-11-27T07:23:21.373Z,78.38
2022-11-27T07:24:23.053Z,78.58
2022-11-27T07:25:24.765Z,77.92
2022-11-27T07:26:28.449Z,78.08
2022-11-27T07:27:30.032Z,78.76
2022-11-27T07:28:31.569Z,79.39
2022-11-27T07:29:33.099Z,78.70
2022-11-27T07:30:36.518Z,77.82
2022-11-27T07:31:38.223Z,78.05
2022-11-27T07:32:39.868Z,78.60
2022-11-27T07:33:41.861Z,78.01
2022-11-27T07:34:43.429Z,78.42
2022-11-27T07:35:45.025Z,78.30
2022-11-27T07:36:46.822Z,77.80
2022-11-27T07:37:48.400Z,77.78
2022-11-27T07:38:50.899Z,77.55
2022-11-27T07:40:02.332Z,76.96
2022-11-27T07:41:05.873Z,77.88
2022-11-27T07:42:37.668Z,77.71
2022-11-27T07:43:29.887Z,76.25
2022-11-27T07:44:31.418Z,76.12
2022-11-27T07:45:32.974Z,76.22
2022-11-27T07:46:34.585Z,76.56
2022-11-27T07:47:36.429Z,77.96
2022-11-27T07:48:38.093Z,79.99
2022-11-27T07:49:39.607Z,79.43
2022-11-27T07:50:41.341Z,79.80
2022-11-27T07:51:42.891Z,80.25
2022-11-27T07:52:44.476Z,79.55
2022-11-27T07:53:46.394Z,80.48
2022-11-27T07:54:47.977Z,80.66
2022-11-27T07:55:49.516Z,81.00
2022-11-27T07:56:51.103Z,80.48
2022-11-27T07:57:52.610Z,81.17
2022-11-27T07:58:54.121Z,79.98
2022-11-27T07:59:55.766Z,81.26
2022-11-27T08:00:57.397Z,82.29
2022-11-27T08:01:59.055Z,82.86
2022-11-27T08:03:01.298Z,81.61
2022-11-27T08:04:03.037Z,81.52
2022-11-27T08:05:10.935Z,81.38
2022-11-27T08:06:19.382Z,81.50
2022-11-27T08:07:20.978Z,81.06
2022-11-27T08:08:22.581Z,85.13
2022-11-27T08:09:24.211Z,82.62
2022-11-27T08:10:25.706Z,80.78
2022-11-27T08:11:33.049Z,81.24
2022-11-27T08:12:34.629Z,80.79
2022-11-27T08:13:36.178Z,79.80
2022-11-27T08:14:38.130Z,79.39
2022-11-27T08:15:39.944Z,79.66
2022-11-27T08:16:41.609Z,80.17
2022-11-27T08:17:43.298Z,80.11
2022-11-27T08:18:44.856Z,80.42
2022-11-27T08:19:46.425Z,79.39
2022-11-27T08:20:48.086Z,79.01
2022-11-27T08:21:50.387Z,79.25
2022-11-27T08:22:52.050Z,78.53
2022-11-27T08:23:53.894Z,79.08
2022-11-27T08:24:55.480Z,78.86
2022-11-27T08:25:57.065Z,78.04
2022-11-27T08:26:58.673Z,78.58
2022-11-27T08:28:00.220Z,78.46
2022-11-27T08:29:01.775Z,78.01
2022-11-27T08:30:04.909Z,77.63
2022-11-27T08:31:08.318Z,77.94
2022-11-27T08:32:10.508Z,76.74
2022-11-27T08:33:14.917Z,76.68
2022-11-27T08:34:16.564Z,76.37
2022-11-27T08:35:18.259Z,76.51
2022-11-27T08:36:20.101Z,77.11
2022-11-27T08:37:22.120Z,76.20
2022-11-27T08:38:24.218Z,76.30
2022-11-27T08:39:26.715Z,75.56
2022-11-27T08:40:28.256Z,75.86
2022-11-27T08:41:29.790Z,76.07
2022-11-27T08:42:31.628Z,75.94
2022-11-27T08:43:33.772Z,75.79
2022-11-27T08:44:35.302Z,75.22
2022-11-27T08:45:39.949Z,74.80
2022-11-27T08:46:43.651Z,74.79
2022-11-27T08:47:45.194Z,75.05
2022-11-27T08:48:46.700Z,75.17
2022-11-27T08:49:48.483Z,75.76
2022-11-27T08:50:50.714Z,76.88
2022-11-27T08:51:52.280Z,77.14
2022-11-27T08:52:53.810Z,76.28
2022-11-27T08:53:55.487Z,76.24
2022-11-27T08:54:57.994Z,76.56
2022-11-27T08:56:11.804Z,75.85
2022-11-27T08:57:13.358Z,75.38
2022-11-27T08:58:14.967Z,75.13
2022-11-27T08:59:16.602Z,74.86
2022-11-27T09:00:21.383Z,75.08
2022-11-27T09:01:27.742Z,75.16
2022-11-27T09:02:29.314Z,75.75
2022-11-27T09:03:30.874Z,78.39
2022-11-27T09:04:32.473Z,76.50
2022-11-27T09:05:34.245Z,76.33
2022-11-27T09:06:36.304Z,76.61
2022-11-27T09:07:38.003Z,75.82
2022-11-27T09:08:41.102Z,75.02
2022-11-27T09:09:42.987Z,75.42
2022-11-27T09:10:44.501Z,74.85
2022-11-27T09:11:46.048Z,74.23
2022-11-27T09:12:49.349Z,74.33
2022-11-27T09:13:50.930Z,73.94
2022-11-27T09:14:52.479Z,73.39
2022-11-27T09:15:55.467Z,73.31
2022-11-27T09:16:57.102Z,72.95
2022-11-27T09:17:58.686Z,73.34
2022-11-27T09:19:00.458Z,73.51
2022-11-27T09:20:02.033Z,73.99
2022-11-27T09:21:07.267Z,74.13
2022-11-27T09:22:08.833Z,73.83
2022-11-27T09:23:14.385Z,74.37
2022-11-27T09:24:16.273Z,74.42
2022-11-27T09:25:17.922Z,74.84
2022-11-27T09:26:19.637Z,74.71
2022-11-27T09:27:21.218Z,74.23
2022-11-27T09:28:24.625Z,74.73
2022-11-27T09:29:29.787Z,75.00
2022-11-27T09:30:31.317Z,75.85
2022-11-27T09:31:33.033Z,75.18
2022-11-27T09:32:34.962Z,75.35
2022-11-27T09:33:38.501Z,74.71
2022-11-27T09:34:40.460Z,74.68
2022-11-27T09:35:42.324Z,74.47
2022-11-27T09:36:44.057Z,75.02
2022-11-27T09:37:45.615Z,74.87
2022-11-27T09:38:47.491Z,74.61
2022-11-27T09:39:49.045Z,74.25
2022-11-27T09:40:53.301Z,74.85
2022-11-27T09:41:57.295Z,74.27
2022-11-27T09:43:09.764Z,75.05
2022-11-27T09:44:45.388Z,74.36
2022-11-27T09:45:54.812Z,75.35
2022-11-27T09:46:59.647Z,76.65
2022-11-27T09:48:04.524Z,76.60
2022-11-27T09:49:13.981Z,77.50
2022-11-27T09:50:21.308Z,77.96
2022-11-27T09:51:34.174Z,78.36
2022-11-27T09:52:54.784Z,77.09
2022-11-27T09:54:06.861Z,78.04
2022-11-27T09:55:31.766Z,78.99
2022-11-27T09:56:36.174Z,79.34
2022-11-27T09:57:40.549Z,79.32
2022-11-27T09:59:03.829Z,78.93
2022-11-27T10:00:20.184Z,79.66
2022-11-27T10:01:34.918Z,79.79
2022-11-27T10:02:43.063Z,80.29
2022-11-27T10:03:46.122Z,81.72
2022-11-27T10:05:12.278Z,80.84
2022-11-27T10:06:22.196Z,80.76
2022-11-27T10:07:37.022Z,80.28
2022-11-27T10:08:48.862Z,82.58
2022-11-27T10:10:00.297Z,92.34
2022-11-27T10:11:04.501Z,79.11
2022-11-27T10:12:22.885Z,78.74
2022-11-27T10:13:33.619Z,78.98
2022-11-27T10:14:47.417Z,80.30
2022-11-27T10:16:03.034Z,80.44
2022-11-27T10:17:33.694Z,79.64
2022-11-27T10:18:47.954Z,80.51
2022-11-27T10:20:01.562Z,81.24
2022-11-27T10:21:14.005Z,80.36
2022-11-27T10:22:44.896Z,81.24
2022-11-27T10:23:51.619Z,81.55
2022-11-27T10:25:28.067Z,82.22
2022-11-27T10:27:02.278Z,81.62
2022-11-27T10:28:09.566Z,79.88
2022-11-27T10:29:29.996Z,78.89
2022-11-27T10:30:37.431Z,80.61
2022-11-27T10:31:41.632Z,80.43
2022-11-27T10:32:55.059Z,80.39
2022-11-27T10:34:02.833Z,80.97
2022-11-27T10:35:16.197Z,79.82
2022-11-27T10:36:30.595Z,80.14
2022-11-27T10:37:39.721Z,78.89
2022-11-27T10:38:43.267Z,78.97
2022-11-27T10:39:51.812Z,78.71
2022-11-27T10:42:55.386Z,79.71
2022-11-27T10:44:01.857Z,78.63
2022-11-27T10:45:03.651Z,77.94
2022-11-27T10:46:17.509Z,79.13
2022-11-27T10:47:24.164Z,80.42
2022-11-27T10:48:27.670Z,80.41
2022-11-27T10:49:29.776Z,79.89
2022-11-27T10:50:31.297Z,79.43
2022-11-27T10:51:35.981Z,76.82
2022-11-27T10:52:51.115Z,77.54
2022-11-27T10:53:54.786Z,77.46
2022-11-27T10:55:00.192Z,76.70
2022-11-27T10:56:20.057Z,77.47
2022-11-27T10:57:24.417Z,77.06
2022-11-27T10:58:36.730Z,77.11
2022-11-27T10:59:48.358Z,76.97
2022-11-27T11:01:05.615Z,77.65
2022-11-27T11:02:29.749Z,77.88
2022-11-27T11:03:31.402Z,77.25
2022-11-27T11:04:38.417Z,77.62
2022-11-27T11:06:21.235Z,76.64
2022-11-27T11:07:29.462Z,76.05
2022-11-27T11:08:33.366Z,75.78
2022-11-27T11:09:36.022Z,76.08
2022-11-27T11:11:02.462Z,76.24
2022-11-27T11:12:18.574Z,76.09
2022-11-27T11:13:20.202Z,75.69
2022-11-27T11:14:24.348Z,75.71
2022-11-27T11:15:25.940Z,75.42
2022-11-27T11:16:34.978Z,75.14
2022-11-27T11:17:40.840Z,74.63
2022-11-27T11:18:43.641Z,74.62
2022-11-27T11:19:46.007Z,72.97
2022-11-27T11:20:50.185Z,72.89
2022-11-27T11:21:52.345Z,73.81
2022-11-27T11:22:54.282Z,73.54
2022-11-27T11:23:58.882Z,73.93
2022-11-27T11:25:00.494Z,73.82
2022-11-27T11:26:07.352Z,73.25
2022-11-27T11:27:21.491Z,73.15
2022-11-27T11:28:24.493Z,74.09
2022-11-27T11:29:29.132Z,74.86
2022-11-27T11:30:30.818Z,74.98
2022-11-27T11:31:37.087Z,75.37
2022-11-27T11:32:40.586Z,76.79
2022-11-27T11:33:57.655Z,77.25
2022-11-27T11:35:23.342Z,77.00
2022-11-27T11:36:25.180Z,76.53
2022-11-27T11:37:38.776Z,75.52
2022-11-27T11:38:44.696Z,76.38
2022-11-27T11:39:53.614Z,76.17
2022-11-27T11:41:07.004Z,75.95
2022-11-27T11:42:11.204Z,74.07
2022-11-27T11:43:32.139Z,74.72
2022-11-27T11:44:37.989Z,74.77
2022-11-27T11:45:48.809Z,74.97
2022-11-27T11:46:54.860Z,76.12
2022-11-27T11:47:59.305Z,75.51
2022-11-27T11:49:24.962Z,74.85
2022-11-27T11:50:37.278Z,75.49
2022-11-27T11:51:47.457Z,74.94
2022-11-27T11:52:59.601Z,75.45
2022-11-27T11:54:31.548Z,74.66
2022-11-27T11:55:33.015Z,75.40
2022-11-27T11:56:39.951Z,76.08
2022-11-27T11:57:58.244Z,76.00
2022-11-27T11:59:03.879Z,75.71
2022-11-27T12:00:11.109Z,75.40
2022-11-27T12:01:54.327Z,75.64
2022-11-27T12:03:17.703Z,74.67
2022-11-27T12:04:31.485Z,75.41
2022-11-27T12:05:33.084Z,76.09
2022-11-27T12:06:45.291Z,76.15
2022-11-27T12:07:52.822Z,75.75
2022-11-27T12:09:06.472Z,77.44
2022-11-27T12:10:16.894Z,76.70
2022-11-27T12:11:30.830Z,76.08
2022-11-27T12:12:47.453Z,75.95
2022-11-27T12:14:11.475Z,75.64
2022-11-27T12:15:36.323Z,74.57
2022-11-27T12:17:03.490Z,73.65
2022-11-27T12:18:26.236Z,73.24
2022-11-27T12:19:36.705Z,73.51
2022-11-27T12:20:41.230Z,73.02
2022-11-27T12:21:45.390Z,74.84
2022-11-27T12:23:01.945Z,74.03
2022-11-27T12:24:11.802Z,73.96
2022-11-27T12:25:25.290Z,73.89
2022-11-27T12:26:42.512Z,74.91
2022-11-27T12:28:07.576Z,73.90
2022-11-27T12:29:15.083Z,72.96
2022-11-27T12:30:36.587Z,74.04
2022-11-27T12:32:05.105Z,74.09
2022-11-27T12:33:27.256Z,72.96
2022-11-27T12:34:50.152Z,73.19
2022-11-27T12:35:58.168Z,73.21
2022-11-27T12:37:11.119Z,73.35
2022-11-27T12:38:28.178Z,73.71
2022-11-27T12:39:57.171Z,74.23
2022-11-27T12:41:32.694Z,72.98
2022-11-27T12:42:49.880Z,72.55
2022-11-27T12:44:00.171Z,73.89
2022-11-27T12:45:28.154Z,73.46
2022-11-27T12:46:55.350Z,73.61
2022-11-27T12:48:05.664Z,74.14
2022-11-27T12:49:40.439Z,74.40
2022-11-27T12:51:06.931Z,74.92
2022-11-27T12:52:19.578Z,75.66
2022-11-27T12:53:39.296Z,76.24
2022-11-27T12:54:52.917Z,76.76
2022-11-27T12:56:06.805Z,76.48
2022-11-27T12:57:16.892Z,76.29
2022-11-27T12:58:27.044Z,75.79
2022-11-27T12:59:38.902Z,75.99
2022-11-27T13:00:43.732Z,74.92
2022-11-27T13:02:25.190Z,76.13
2022-11-27T13:03:39.158Z,75.70
2022-11-27T13:05:08.133Z,75.60
2022-11-27T13:06:17.702Z,76.60
2022-11-27T13:07:24.936Z,76.24
2022-11-27T13:08:51.043Z,76.10
2022-11-27T13:10:12.167Z,75.77
2022-11-27T13:11:17.037Z,75.84
2022-11-27T13:12:28.781Z,75.69
2022-11-27T13:13:35.977Z,75.71
2022-11-27T13:14:41.169Z,75.36
2022-11-27T13:16:00.829Z,74.96
2022-11-27T13:17:15.638Z,76.00
2022-11-27T13:18:29.215Z,75.73
2022-11-27T13:19:35.482Z,76.11
2022-11-27T13:20:39.839Z,75.67
2022-11-27T13:21:42.990Z,75.25
2022-11-27T13:22:45.852Z,75.80
2022-11-27T13:23:47.366Z,75.21
2022-11-27T13:24:48.940Z,76.15
2022-11-27T13:25:55.644Z,76.31
2022-11-27T13:27:14.938Z,75.95
2022-11-27T13:28:31.655Z,76.30
2022-11-27T13:29:57.372Z,76.67
2022-11-27T13:31:01.244Z,76.48
2022-11-27T13:32:04.957Z,75.95
2022-11-27T13:33:07.957Z,76.20
2022-11-27T13:34:18.405Z,74.80
2022-11-27T13:35:32.131Z,75.50
2022-11-27T13:36:40.722Z,75.00
2022-11-27T13:37:42.453Z,74.56
2022-11-27T13:38:45.203Z,74.21
2022-11-27T13:39:46.768Z,74.80
2022-11-27T13:40:55.901Z,74.54
2022-11-27T13:42:12.879Z,75.60
2022-11-27T13:43:52.800Z,75.57
2022-11-27T13:45:11.411Z,75.25
2022-11-27T13:46:26.203Z,75.01
2022-11-27T13:47:30.506Z,74.37
2022-11-27T13:48:33.563Z,75.34
2022-11-27T13:49:37.970Z,75.26
2022-11-27T13:50:46.314Z,75.10
2022-11-27T13:51:47.963Z,75.08
2022-11-27T13:52:57.429Z,74.93
2022-11-27T13:54:10.027Z,74.83
2022-11-27T13:55:23.166Z,74.09
2022-11-27T13:56:31.429Z,74.87
2022-11-27T13:57:36.250Z,74.64
2022-11-27T13:58:40.822Z,74.36
2022-11-27T13:59:54.235Z,74.61
2022-11-27T14:00:55.863Z,74.38
2022-11-27T14:02:03.327Z,74.80
2022-11-27T14:03:07.190Z,74.32
2022-11-27T14:04:10.086Z,74.18
2022-11-27T14:05:13.691Z,73.90
2022-11-27T14:06:22.216Z,73.83
2022-11-27T14:07:34.168Z,73.54
2022-11-27T14:08:35.814Z,74.24
2022-11-27T14:10:06.755Z,74.44
2022-11-27T14:11:14.390Z,74.37
2022-11-27T14:12:28.772Z,75.18
2022-11-27T14:13:55.954Z,75.16
2022-11-27T14:15:23.487Z,74.03
2022-11-27T14:16:31.219Z,73.82
2022-11-27T14:17:47.768Z,73.23
2022-11-27T14:18:52.026Z,73.57